sensor_id;sensor_type;location;lat;lon;timestamp;P1;durP1;ratioP1;P2;durP2;ratioP2
66669;SDS011;53568;52.164;4.472;2023-04-06T00:01:31;43.99;;;43.00;;
66669;SDS011;53568;52.164;4.472;2023-04-06T00:03:57;44.69;;;43.60;;
66669;SDS011;53568;52.164;4.472;2023-04-06T00:06:22;43.26;;;42.27;;
66669;SDS011;53568;52.164;4.472;2023-04-06T00:08:48;44.13;;;42.89;;
66669;SDS011;53568;52.164;4.472;2023-04-06T00:11:13;41.89;;;41.00;;
66669;SDS011;53568;52.164;4.472;2023-04-06T00:13:39;40.42;;;39.56;;
66669;SDS011;53568;52.164;4.472;2023-04-06T00:16:05;39.84;;;39.05;;
66669;SDS011;53568;52.164;4.472;2023-04-06T00:18:31;39.79;;;39.19;;
66669;SDS011;53568;52.164;4.472;2023-04-06T00:20:57;39.80;;;39.30;;
66669;SDS011;53568;52.164;4.472;2023-04-06T00:23:22;37.41;;;36.97;;
66669;SDS011;53568;52.164;4.472;2023-04-06T00:25:48;37.96;;;37.33;;
66669;SDS011;53568;52.164;4.472;2023-04-06T00:28:13;37.97;;;37.23;;
66669;SDS011;53568;52.164;4.472;2023-04-06T00:30:40;36.71;;;36.05;;
66669;SDS011;53568;52.164;4.472;2023-04-06T00:33:06;36.20;;;35.47;;
66669;SDS011;53568;52.164;4.472;2023-04-06T00:35:31;35.32;;;34.58;;
66669;SDS011;53568;52.164;4.472;2023-04-06T00:37:57;34.87;;;34.05;;
66669;SDS011;53568;52.164;4.472;2023-04-06T00:40:23;34.08;;;33.55;;
66669;SDS011;53568;52.164;4.472;2023-04-06T00:42:48;33.93;;;33.51;;
66669;SDS011;53568;52.164;4.472;2023-04-06T00:45:14;32.58;;;31.90;;
66669;SDS011;53568;52.164;4.472;2023-04-06T00:47:40;32.44;;;31.57;;
66669;SDS011;53568;52.164;4.472;2023-04-06T00:50:05;31.13;;;30.66;;
66669;SDS011;53568;52.164;4.472;2023-04-06T00:52:32;30.03;;;29.74;;
66669;SDS011;53568;52.164;4.472;2023-04-06T00:54:58;29.72;;;29.33;;
66669;SDS011;53568;52.164;4.472;2023-04-06T00:57:24;28.96;;;28.63;;
66669;SDS011;53568;52.164;4.472;2023-04-06T00:59:50;29.12;;;28.48;;
66669;SDS011;53568;52.164;4.472;2023-04-06T01:02:17;28.83;;;28.40;;
66669;SDS011;53568;52.164;4.472;2023-04-06T01:04:43;28.78;;;28.31;;
66669;SDS011;53568;52.164;4.472;2023-04-06T01:07:09;26.95;;;26.49;;
66669;SDS011;53568;52.164;4.472;2023-04-06T01:09:35;27.68;;;27.11;;
66669;SDS011;53568;52.164;4.472;2023-04-06T01:12:00;28.00;;;27.41;;
66669;SDS011;53568;52.164;4.472;2023-04-06T01:14:27;27.18;;;26.78;;
66669;SDS011;53568;52.164;4.472;2023-04-06T01:16:53;26.17;;;25.68;;
66669;SDS011;53568;52.164;4.472;2023-04-06T01:19:18;26.82;;;26.33;;
66669;SDS011;53568;52.164;4.472;2023-04-06T01:21:45;25.22;;;24.88;;
66669;SDS011;53568;52.164;4.472;2023-04-06T01:24:11;25.63;;;25.14;;
66669;SDS011;53568;52.164;4.472;2023-04-06T01:26:37;25.33;;;24.92;;
66669;SDS011;53568;52.164;4.472;2023-04-06T01:29:03;24.83;;;24.45;;
66669;SDS011;53568;52.164;4.472;2023-04-06T01:31:29;24.76;;;24.48;;
66669;SDS011;53568;52.164;4.472;2023-04-06T01:33:55;24.66;;;24.37;;
66669;SDS011;53568;52.164;4.472;2023-04-06T01:36:21;23.66;;;23.32;;
66669;SDS011;53568;52.164;4.472;2023-04-06T01:38:47;23.31;;;23.04;;
66669;SDS011;53568;52.164;4.472;2023-04-06T01:41:13;23.77;;;23.50;;
66669;SDS011;53568;52.164;4.472;2023-04-06T01:43:38;23.73;;;23.41;;
66669;SDS011;53568;52.164;4.472;2023-04-06T01:46:04;23.99;;;23.71;;
66669;SDS011;53568;52.164;4.472;2023-04-06T01:48:30;24.08;;;23.56;;
66669;SDS011;53568;52.164;4.472;2023-04-06T01:50:55;23.76;;;23.42;;
66669;SDS011;53568;52.164;4.472;2023-04-06T01:53:21;22.70;;;22.45;;
66669;SDS011;53568;52.164;4.472;2023-04-06T01:55:47;22.97;;;22.66;;
66669;SDS011;53568;52.164;4.472;2023-04-06T01:58:13;23.24;;;22.82;;
66669;SDS011;53568;52.164;4.472;2023-04-06T02:00:39;23.52;;;23.12;;
66669;SDS011;53568;52.164;4.472;2023-04-06T02:03:05;23.60;;;23.18;;
66669;SDS011;53568;52.164;4.472;2023-04-06T02:05:32;23.65;;;23.08;;
66669;SDS011;53568;52.164;4.472;2023-04-06T02:08:05;23.31;;;23.17;;
66669;SDS011;53568;52.164;4.472;2023-04-06T02:10:32;22.50;;;22.21;;
66669;SDS011;53568;52.164;4.472;2023-04-06T02:12:58;23.25;;;22.92;;
66669;SDS011;53568;52.164;4.472;2023-04-06T02:15:24;22.96;;;22.59;;
66669;SDS011;53568;52.164;4.472;2023-04-06T02:17:50;22.95;;;22.74;;
66669;SDS011;53568;52.164;4.472;2023-04-06T02:20:16;22.37;;;22.19;;
66669;SDS011;53568;52.164;4.472;2023-04-06T02:22:42;23.60;;;23.37;;
66669;SDS011;53568;52.164;4.472;2023-04-06T02:25:08;23.75;;;23.19;;
66669;SDS011;53568;52.164;4.472;2023-04-06T02:27:34;24.02;;;23.46;;
66669;SDS011;53568;52.164;4.472;2023-04-06T02:30:00;23.33;;;23.08;;
66669;SDS011;53568;52.164;4.472;2023-04-06T02:32:26;23.16;;;22.73;;
66669;SDS011;53568;52.164;4.472;2023-04-06T02:34:51;23.55;;;23.08;;
66669;SDS011;53568;52.164;4.472;2023-04-06T02:37:17;23.98;;;23.46;;
66669;SDS011;53568;52.164;4.472;2023-04-06T02:39:42;24.18;;;23.65;;
66669;SDS011;53568;52.164;4.472;2023-04-06T02:42:08;23.62;;;23.25;;
66669;SDS011;53568;52.164;4.472;2023-04-06T02:44:34;24.10;;;23.68;;
66669;SDS011;53568;52.164;4.472;2023-04-06T02:47:00;24.36;;;23.97;;
66669;SDS011;53568;52.164;4.472;2023-04-06T02:49:25;24.10;;;23.63;;
66669;SDS011;53568;52.164;4.472;2023-04-06T02:51:51;24.46;;;23.97;;
66669;SDS011;53568;52.164;4.472;2023-04-06T02:54:16;24.29;;;23.78;;
66669;SDS011;53568;52.164;4.472;2023-04-06T02:56:42;23.58;;;23.37;;
66669;SDS011;53568;52.164;4.472;2023-04-06T02:59:08;23.76;;;23.57;;
66669;SDS011;53568;52.164;4.472;2023-04-06T03:01:34;24.31;;;24.00;;
66669;SDS011;53568;52.164;4.472;2023-04-06T03:03:59;25.28;;;24.79;;
66669;SDS011;53568;52.164;4.472;2023-04-06T03:06:25;24.14;;;23.87;;
66669;SDS011;53568;52.164;4.472;2023-04-06T03:08:51;24.17;;;23.82;;
66669;SDS011;53568;52.164;4.472;2023-04-06T03:11:16;24.78;;;24.18;;
66669;SDS011;53568;52.164;4.472;2023-04-06T03:13:42;24.89;;;24.33;;
66669;SDS011;53568;52.164;4.472;2023-04-06T03:16:07;24.92;;;24.69;;
66669;SDS011;53568;52.164;4.472;2023-04-06T03:18:33;24.88;;;24.73;;
66669;SDS011;53568;52.164;4.472;2023-04-06T03:20:59;25.29;;;24.86;;
66669;SDS011;53568;52.164;4.472;2023-04-06T03:23:25;24.60;;;24.36;;
66669;SDS011;53568;52.164;4.472;2023-04-06T03:25:51;25.05;;;24.65;;
66669;SDS011;53568;52.164;4.472;2023-04-06T03:28:16;25.01;;;24.74;;
66669;SDS011;53568;52.164;4.472;2023-04-06T03:30:42;25.82;;;25.45;;
66669;SDS011;53568;52.164;4.472;2023-04-06T03:33:08;25.78;;;25.36;;
66669;SDS011;53568;52.164;4.472;2023-04-06T03:35:33;25.82;;;25.45;;
66669;SDS011;53568;52.164;4.472;2023-04-06T03:37:59;25.25;;;24.98;;
66669;SDS011;53568;52.164;4.472;2023-04-06T03:40:24;25.42;;;25.15;;
66669;SDS011;53568;52.164;4.472;2023-04-06T03:42:50;25.83;;;25.44;;
66669;SDS011;53568;52.164;4.472;2023-04-06T03:45:16;26.46;;;26.00;;
66669;SDS011;53568;52.164;4.472;2023-04-06T03:47:42;25.56;;;25.24;;
66669;SDS011;53568;52.164;4.472;2023-04-06T03:50:07;25.82;;;25.41;;
66669;SDS011;53568;52.164;4.472;2023-04-06T03:52:34;25.57;;;25.13;;
66669;SDS011;53568;52.164;4.472;2023-04-06T03:55:00;25.89;;;25.47;;
66669;SDS011;53568;52.164;4.472;2023-04-06T03:57:25;25.97;;;25.76;;
66669;SDS011;53568;52.164;4.472;2023-04-06T03:59:51;26.38;;;25.96;;
66669;SDS011;53568;52.164;4.472;2023-04-06T04:02:16;26.08;;;25.77;;
66669;SDS011;53568;52.164;4.472;2023-04-06T04:04:42;27.67;;;27.17;;
66669;SDS011;53568;52.164;4.472;2023-04-06T04:07:07;27.73;;;27.26;;
66669;SDS011;53568;52.164;4.472;2023-04-06T04:09:33;27.81;;;27.22;;
66669;SDS011;53568;52.164;4.472;2023-04-06T04:11:58;27.75;;;27.16;;
66669;SDS011;53568;52.164;4.472;2023-04-06T04:14:24;27.41;;;26.87;;
66669;SDS011;53568;52.164;4.472;2023-04-06T04:16:50;27.46;;;26.67;;
66669;SDS011;53568;52.164;4.472;2023-04-06T04:19:16;26.35;;;25.93;;
66669;SDS011;53568;52.164;4.472;2023-04-06T04:21:42;26.56;;;26.21;;
66669;SDS011;53568;52.164;4.472;2023-04-06T04:24:10;27.99;;;27.43;;
66669;SDS011;53568;52.164;4.472;2023-04-06T04:26:35;27.70;;;27.35;;
66669;SDS011;53568;52.164;4.472;2023-04-06T04:29:01;27.63;;;27.02;;
66669;SDS011;53568;52.164;4.472;2023-04-06T04:31:26;28.27;;;27.32;;
66669;SDS011;53568;52.164;4.472;2023-04-06T04:33:52;27.62;;;27.17;;
66669;SDS011;53568;52.164;4.472;2023-04-06T04:36:17;27.85;;;27.59;;
66669;SDS011;53568;52.164;4.472;2023-04-06T04:38:43;26.84;;;26.61;;
66669;SDS011;53568;52.164;4.472;2023-04-06T04:41:09;27.46;;;27.22;;
66669;SDS011;53568;52.164;4.472;2023-04-06T04:43:34;27.82;;;27.58;;
66669;SDS011;53568;52.164;4.472;2023-04-06T04:46:00;28.25;;;27.93;;
66669;SDS011;53568;52.164;4.472;2023-04-06T04:48:25;28.06;;;27.65;;
66669;SDS011;53568;52.164;4.472;2023-04-06T04:50:51;28.42;;;27.89;;
66669;SDS011;53568;52.164;4.472;2023-04-06T04:53:20;27.61;;;27.26;;
66669;SDS011;53568;52.164;4.472;2023-04-06T04:55:45;27.91;;;27.46;;
66669;SDS011;53568;52.164;4.472;2023-04-06T04:58:11;28.86;;;28.15;;
66669;SDS011;53568;52.164;4.472;2023-04-06T05:00:40;28.19;;;27.56;;
66669;SDS011;53568;52.164;4.472;2023-04-06T05:03:06;28.37;;;27.89;;
66669;SDS011;53568;52.164;4.472;2023-04-06T05:05:32;28.74;;;27.97;;
66669;SDS011;53568;52.164;4.472;2023-04-06T05:07:57;28.02;;;27.45;;
66669;SDS011;53568;52.164;4.472;2023-04-06T05:10:23;27.89;;;27.57;;
66669;SDS011;53568;52.164;4.472;2023-04-06T05:12:49;27.93;;;27.56;;
66669;SDS011;53568;52.164;4.472;2023-04-06T05:15:14;28.44;;;28.01;;
66669;SDS011;53568;52.164;4.472;2023-04-06T05:17:40;28.61;;;28.14;;
66669;SDS011;53568;52.164;4.472;2023-04-06T05:20:05;28.11;;;27.84;;
66669;SDS011;53568;52.164;4.472;2023-04-06T05:22:31;29.37;;;28.81;;
66669;SDS011;53568;52.164;4.472;2023-04-06T05:24:57;28.70;;;28.08;;
66669;SDS011;53568;52.164;4.472;2023-04-06T05:27:22;29.09;;;28.50;;
66669;SDS011;53568;52.164;4.472;2023-04-06T05:29:48;29.00;;;28.40;;
66669;SDS011;53568;52.164;4.472;2023-04-06T05:32:14;29.65;;;29.03;;
66669;SDS011;53568;52.164;4.472;2023-04-06T05:34:40;30.02;;;29.44;;
66669;SDS011;53568;52.164;4.472;2023-04-06T05:37:11;29.56;;;29.02;;
66669;SDS011;53568;52.164;4.472;2023-04-06T05:39:36;30.21;;;29.61;;
66669;SDS011;53568;52.164;4.472;2023-04-06T05:42:17;30.37;;;29.88;;
66669;SDS011;53568;52.164;4.472;2023-04-06T05:44:42;30.79;;;30.16;;
66669;SDS011;53568;52.164;4.472;2023-04-06T05:47:08;30.88;;;30.24;;
66669;SDS011;53568;52.164;4.472;2023-04-06T05:49:34;30.94;;;30.19;;
66669;SDS011;53568;52.164;4.472;2023-04-06T05:52:00;31.55;;;30.67;;
66669;SDS011;53568;52.164;4.472;2023-04-06T05:54:26;32.83;;;31.98;;
66669;SDS011;53568;52.164;4.472;2023-04-06T05:56:52;32.88;;;32.15;;
66669;SDS011;53568;52.164;4.472;2023-04-06T05:59:18;33.36;;;32.47;;
66669;SDS011;53568;52.164;4.472;2023-04-06T06:01:43;34.63;;;33.82;;
66669;SDS011;53568;52.164;4.472;2023-04-06T06:04:09;33.62;;;32.92;;
66669;SDS011;53568;52.164;4.472;2023-04-06T06:06:35;34.76;;;33.94;;
66669;SDS011;53568;52.164;4.472;2023-04-06T06:09:01;34.92;;;33.92;;
66669;SDS011;53568;52.164;4.472;2023-04-06T06:11:28;34.74;;;34.03;;
66669;SDS011;53568;52.164;4.472;2023-04-06T06:13:54;35.96;;;35.02;;
66669;SDS011;53568;52.164;4.472;2023-04-06T06:16:20;36.68;;;35.74;;
66669;SDS011;53568;52.164;4.472;2023-04-06T06:18:45;36.10;;;35.10;;
66669;SDS011;53568;52.164;4.472;2023-04-06T06:21:11;35.36;;;34.48;;
66669;SDS011;53568;52.164;4.472;2023-04-06T06:23:37;36.61;;;35.57;;
66669;SDS011;53568;52.164;4.472;2023-04-06T06:26:03;36.28;;;35.45;;
66669;SDS011;53568;52.164;4.472;2023-04-06T06:28:29;36.76;;;35.69;;
66669;SDS011;53568;52.164;4.472;2023-04-06T06:30:58;36.94;;;36.04;;
66669;SDS011;53568;52.164;4.472;2023-04-06T06:33:23;36.98;;;35.87;;
66669;SDS011;53568;52.164;4.472;2023-04-06T06:35:51;38.00;;;37.04;;
66669;SDS011;53568;52.164;4.472;2023-04-06T06:38:17;38.64;;;37.38;;
66669;SDS011;53568;52.164;4.472;2023-04-06T06:40:43;38.56;;;37.42;;
66669;SDS011;53568;52.164;4.472;2023-04-06T06:43:10;38.91;;;37.82;;
66669;SDS011;53568;52.164;4.472;2023-04-06T06:45:35;39.94;;;38.49;;
66669;SDS011;53568;52.164;4.472;2023-04-06T06:48:01;39.93;;;38.67;;
66669;SDS011;53568;52.164;4.472;2023-04-06T06:50:27;40.32;;;39.17;;
66669;SDS011;53568;52.164;4.472;2023-04-06T06:52:52;40.83;;;39.61;;
66669;SDS011;53568;52.164;4.472;2023-04-06T06:55:18;42.06;;;40.44;;
66669;SDS011;53568;52.164;4.472;2023-04-06T06:57:46;42.14;;;40.32;;
66669;SDS011;53568;52.164;4.472;2023-04-06T07:00:13;42.74;;;40.95;;
66669;SDS011;53568;52.164;4.472;2023-04-06T07:02:39;43.00;;;41.10;;
66669;SDS011;53568;52.164;4.472;2023-04-06T07:05:05;42.40;;;41.02;;
66669;SDS011;53568;52.164;4.472;2023-04-06T07:07:33;44.08;;;42.35;;
66669;SDS011;53568;52.164;4.472;2023-04-06T07:10:00;43.26;;;41.45;;
66669;SDS011;53568;52.164;4.472;2023-04-06T07:12:26;43.12;;;41.32;;
66669;SDS011;53568;52.164;4.472;2023-04-06T07:14:52;43.97;;;42.06;;
66669;SDS011;53568;52.164;4.472;2023-04-06T07:17:18;43.92;;;42.38;;
66669;SDS011;53568;52.164;4.472;2023-04-06T07:19:44;43.76;;;42.16;;
66669;SDS011;53568;52.164;4.472;2023-04-06T07:22:10;43.68;;;41.99;;
66669;SDS011;53568;52.164;4.472;2023-04-06T07:24:36;42.27;;;40.92;;
66669;SDS011;53568;52.164;4.472;2023-04-06T07:27:01;42.93;;;41.46;;
66669;SDS011;53568;52.164;4.472;2023-04-06T07:29:27;43.77;;;42.29;;
66669;SDS011;53568;52.164;4.472;2023-04-06T07:31:53;43.79;;;42.11;;
66669;SDS011;53568;52.164;4.472;2023-04-06T07:34:19;44.40;;;42.58;;
66669;SDS011;53568;52.164;4.472;2023-04-06T07:36:46;43.34;;;41.92;;
66669;SDS011;53568;52.164;4.472;2023-04-06T07:39:11;44.91;;;43.15;;
66669;SDS011;53568;52.164;4.472;2023-04-06T07:41:37;43.60;;;42.08;;
66669;SDS011;53568;52.164;4.472;2023-04-06T07:44:03;43.60;;;42.07;;
66669;SDS011;53568;52.164;4.472;2023-04-06T07:46:29;44.37;;;43.05;;
66669;SDS011;53568;52.164;4.472;2023-04-06T07:48:56;43.07;;;42.00;;
66669;SDS011;53568;52.164;4.472;2023-04-06T07:51:23;43.66;;;42.17;;
66669;SDS011;53568;52.164;4.472;2023-04-06T07:53:50;43.36;;;41.93;;
66669;SDS011;53568;52.164;4.472;2023-04-06T07:56:16;42.44;;;41.03;;
66669;SDS011;53568;52.164;4.472;2023-04-06T07:58:41;41.82;;;40.21;;
66669;SDS011;53568;52.164;4.472;2023-04-06T08:01:07;42.90;;;41.51;;
66669;SDS011;53568;52.164;4.472;2023-04-06T08:03:33;41.57;;;40.38;;
66669;SDS011;53568;52.164;4.472;2023-04-06T08:06:02;40.88;;;39.67;;
66669;SDS011;53568;52.164;4.472;2023-04-06T08:08:28;40.61;;;39.40;;
66669;SDS011;53568;52.164;4.472;2023-04-06T08:10:54;40.67;;;39.57;;
66669;SDS011;53568;52.164;4.472;2023-04-06T08:13:20;40.01;;;38.97;;
66669;SDS011;53568;52.164;4.472;2023-04-06T08:15:46;41.31;;;39.86;;
66669;SDS011;53568;52.164;4.472;2023-04-06T08:18:12;40.99;;;39.98;;
66669;SDS011;53568;52.164;4.472;2023-04-06T08:20:37;39.88;;;38.64;;
66669;SDS011;53568;52.164;4.472;2023-04-06T08:23:03;36.23;;;35.38;;
66669;SDS011;53568;52.164;4.472;2023-04-06T08:25:29;32.91;;;32.27;;
66669;SDS011;53568;52.164;4.472;2023-04-06T08:27:55;30.74;;;30.25;;
66669;SDS011;53568;52.164;4.472;2023-04-06T08:30:21;29.93;;;29.28;;
66669;SDS011;53568;52.164;4.472;2023-04-06T08:32:46;31.50;;;30.90;;
66669;SDS011;53568;52.164;4.472;2023-04-06T08:35:12;33.31;;;32.18;;
66669;SDS011;53568;52.164;4.472;2023-04-06T08:37:37;32.24;;;31.45;;
66669;SDS011;53568;52.164;4.472;2023-04-06T08:40:03;32.61;;;31.57;;
66669;SDS011;53568;52.164;4.472;2023-04-06T08:42:31;31.77;;;31.00;;
66669;SDS011;53568;52.164;4.472;2023-04-06T08:44:58;32.81;;;32.05;;
66669;SDS011;53568;52.164;4.472;2023-04-06T08:47:25;34.91;;;33.97;;
66669;SDS011;53568;52.164;4.472;2023-04-06T08:49:52;35.94;;;34.99;;
66669;SDS011;53568;52.164;4.472;2023-04-06T08:52:18;36.89;;;35.85;;
66669;SDS011;53568;52.164;4.472;2023-04-06T08:54:44;38.06;;;37.13;;
66669;SDS011;53568;52.164;4.472;2023-04-06T08:57:10;38.48;;;37.58;;
66669;SDS011;53568;52.164;4.472;2023-04-06T08:59:36;38.82;;;37.70;;
66669;SDS011;53568;52.164;4.472;2023-04-06T09:02:03;38.28;;;37.10;;
66669;SDS011;53568;52.164;4.472;2023-04-06T09:04:32;37.80;;;36.87;;
66669;SDS011;53568;52.164;4.472;2023-04-06T09:06:58;34.03;;;33.37;;
66669;SDS011;53568;52.164;4.472;2023-04-06T09:09:25;26.12;;;25.65;;
66669;SDS011;53568;52.164;4.472;2023-04-06T09:11:51;23.01;;;22.50;;
66669;SDS011;53568;52.164;4.472;2023-04-06T09:14:17;21.22;;;20.89;;
66669;SDS011;53568;52.164;4.472;2023-04-06T09:17:07;20.64;;;20.33;;
66669;SDS011;53568;52.164;4.472;2023-04-06T09:19:32;19.90;;;19.63;;
66669;SDS011;53568;52.164;4.472;2023-04-06T09:22:02;19.14;;;18.99;;
66669;SDS011;53568;52.164;4.472;2023-04-06T09:27:16;18.18;;;17.88;;
66669;SDS011;53568;52.164;4.472;2023-04-06T09:29:42;17.05;;;16.86;;
66669;SDS011;53568;52.164;4.472;2023-04-06T09:32:10;15.62;;;15.44;;
66669;SDS011;53568;52.164;4.472;2023-04-06T09:34:37;14.95;;;14.81;;
66669;SDS011;53568;52.164;4.472;2023-04-06T09:37:16;15.11;;;15.00;;
66669;SDS011;53568;52.164;4.472;2023-04-06T09:39:44;15.84;;;15.64;;
66669;SDS011;53568;52.164;4.472;2023-04-06T09:42:31;16.27;;;15.92;;
66669;SDS011;53568;52.164;4.472;2023-04-06T09:44:56;15.32;;;15.16;;
66669;SDS011;53568;52.164;4.472;2023-04-06T09:47:22;15.02;;;14.72;;
66669;SDS011;53568;52.164;4.472;2023-04-06T09:49:50;14.28;;;13.96;;
66669;SDS011;53568;52.164;4.472;2023-04-06T09:52:23;13.89;;;13.61;;
66669;SDS011;53568;52.164;4.472;2023-04-06T09:54:52;14.63;;;14.37;;
66669;SDS011;53568;52.164;4.472;2023-04-06T09:57:26;14.17;;;13.97;;
66669;SDS011;53568;52.164;4.472;2023-04-06T10:00:07;14.86;;;14.68;;
66669;SDS011;53568;52.164;4.472;2023-04-06T10:07:45;14.33;;;14.13;;
66669;SDS011;53568;52.164;4.472;2023-04-06T10:10:15;13.66;;;13.48;;
66669;SDS011;53568;52.164;4.472;2023-04-06T10:12:41;13.83;;;13.66;;
66669;SDS011;53568;52.164;4.472;2023-04-06T10:15:10;13.94;;;13.63;;
66669;SDS011;53568;52.164;4.472;2023-04-06T10:17:36;13.87;;;13.65;;
66669;SDS011;53568;52.164;4.472;2023-04-06T10:20:13;14.47;;;14.19;;
66669;SDS011;53568;52.164;4.472;2023-04-06T10:23:04;14.45;;;14.19;;
66669;SDS011;53568;52.164;4.472;2023-04-06T10:25:35;14.88;;;14.61;;
66669;SDS011;53568;52.164;4.472;2023-04-06T10:28:06;15.47;;;15.24;;
66669;SDS011;53568;52.164;4.472;2023-04-06T10:30:34;16.20;;;16.09;;
66669;SDS011;53568;52.164;4.472;2023-04-06T10:33:16;17.30;;;17.08;;
66669;SDS011;53568;52.164;4.472;2023-04-06T10:35:45;17.49;;;17.17;;
66669;SDS011;53568;52.164;4.472;2023-04-06T10:38:11;16.83;;;16.63;;
66669;SDS011;53568;52.164;4.472;2023-04-06T10:40:42;16.67;;;16.59;;
66669;SDS011;53568;52.164;4.472;2023-04-06T10:43:18;16.73;;;16.66;;
66669;SDS011;53568;52.164;4.472;2023-04-06T10:45:45;16.51;;;16.38;;
66669;SDS011;53568;52.164;4.472;2023-04-06T10:48:24;17.16;;;17.03;;
66669;SDS011;53568;52.164;4.472;2023-04-06T10:50:51;17.57;;;17.42;;
66669;SDS011;53568;52.164;4.472;2023-04-06T10:53:24;17.81;;;17.44;;
66669;SDS011;53568;52.164;4.472;2023-04-06T10:55:52;18.05;;;17.91;;
66669;SDS011;53568;52.164;4.472;2023-04-06T10:58:23;18.10;;;18.09;;
66669;SDS011;53568;52.164;4.472;2023-04-06T11:00:50;18.11;;;18.07;;
66669;SDS011;53568;52.164;4.472;2023-04-06T11:03:18;17.48;;;17.46;;
66669;SDS011;53568;52.164;4.472;2023-04-06T11:05:44;17.86;;;17.86;;
66669;SDS011;53568;52.164;4.472;2023-04-06T11:08:21;17.38;;;17.38;;
66669;SDS011;53568;52.164;4.472;2023-04-06T11:11:08;17.70;;;17.68;;
66669;SDS011;53568;52.164;4.472;2023-04-06T11:13:40;17.97;;;17.74;;
66669;SDS011;53568;52.164;4.472;2023-04-06T11:19:11;18.07;;;18.06;;
66669;SDS011;53568;52.164;4.472;2023-04-06T11:21:39;17.84;;;17.81;;
66669;SDS011;53568;52.164;4.472;2023-04-06T11:24:09;17.91;;;17.83;;
66669;SDS011;53568;52.164;4.472;2023-04-06T11:26:40;18.33;;;18.20;;
66669;SDS011;53568;52.164;4.472;2023-04-06T11:29:09;18.54;;;18.54;;
66669;SDS011;53568;52.164;4.472;2023-04-06T11:31:40;18.05;;;18.00;;
66669;SDS011;53568;52.164;4.472;2023-04-06T11:34:10;18.60;;;18.46;;
66669;SDS011;53568;52.164;4.472;2023-04-06T11:36:42;18.23;;;18.23;;
66669;SDS011;53568;52.164;4.472;2023-04-06T11:39:10;17.04;;;17.03;;
66669;SDS011;53568;52.164;4.472;2023-04-06T11:41:36;17.33;;;17.33;;
66669;SDS011;53568;52.164;4.472;2023-04-06T11:44:02;16.65;;;16.65;;
66669;SDS011;53568;52.164;4.472;2023-04-06T11:46:28;16.41;;;16.41;;
66669;SDS011;53568;52.164;4.472;2023-04-06T11:48:57;15.68;;;15.68;;
66669;SDS011;53568;52.164;4.472;2023-04-06T11:51:25;16.48;;;16.48;;
66669;SDS011;53568;52.164;4.472;2023-04-06T11:53:52;17.05;;;17.05;;
66669;SDS011;53568;52.164;4.472;2023-04-06T11:56:28;16.45;;;16.45;;
66669;SDS011;53568;52.164;4.472;2023-04-06T11:58:57;15.60;;;15.60;;
66669;SDS011;53568;52.164;4.472;2023-04-06T12:01:25;16.13;;;16.13;;
66669;SDS011;53568;52.164;4.472;2023-04-06T12:03:51;16.67;;;16.67;;
66669;SDS011;53568;52.164;4.472;2023-04-06T12:06:18;16.05;;;16.05;;
66669;SDS011;53568;52.164;4.472;2023-04-06T12:08:44;16.14;;;16.14;;
66669;SDS011;53568;52.164;4.472;2023-04-06T12:11:10;16.27;;;16.27;;
66669;SDS011;53568;52.164;4.472;2023-04-06T12:13:36;16.85;;;16.85;;
66669;SDS011;53568;52.164;4.472;2023-04-06T12:16:02;16.14;;;16.14;;
66669;SDS011;53568;52.164;4.472;2023-04-06T12:18:29;16.08;;;16.08;;
66669;SDS011;53568;52.164;4.472;2023-04-06T12:20:55;15.80;;;15.80;;
66669;SDS011;53568;52.164;4.472;2023-04-06T12:23:21;15.40;;;15.40;;
66669;SDS011;53568;52.164;4.472;2023-04-06T12:25:46;15.74;;;15.74;;
66669;SDS011;53568;52.164;4.472;2023-04-06T12:28:12;15.13;;;15.11;;
66669;SDS011;53568;52.164;4.472;2023-04-06T12:30:38;15.25;;;15.25;;
66669;SDS011;53568;52.164;4.472;2023-04-06T12:33:04;15.56;;;15.56;;
66669;SDS011;53568;52.164;4.472;2023-04-06T12:35:33;15.02;;;15.02;;
66669;SDS011;53568;52.164;4.472;2023-04-06T12:37:59;15.25;;;15.25;;
66669;SDS011;53568;52.164;4.472;2023-04-06T12:40:25;15.55;;;15.55;;
66669;SDS011;53568;52.164;4.472;2023-04-06T12:42:50;15.22;;;15.22;;
66669;SDS011;53568;52.164;4.472;2023-04-06T12:45:16;15.34;;;15.34;;
66669;SDS011;53568;52.164;4.472;2023-04-06T12:47:41;15.50;;;15.50;;
66669;SDS011;53568;52.164;4.472;2023-04-06T12:50:07;14.80;;;14.80;;
66669;SDS011;53568;52.164;4.472;2023-04-06T12:52:33;13.84;;;13.84;;
66669;SDS011;53568;52.164;4.472;2023-04-06T12:55:01;13.79;;;13.79;;
66669;SDS011;53568;52.164;4.472;2023-04-06T12:57:27;13.39;;;13.39;;
66669;SDS011;53568;52.164;4.472;2023-04-06T12:59:53;13.11;;;13.11;;
66669;SDS011;53568;52.164;4.472;2023-04-06T13:02:18;13.37;;;13.27;;
66669;SDS011;53568;52.164;4.472;2023-04-06T13:04:45;13.45;;;13.45;;
66669;SDS011;53568;52.164;4.472;2023-04-06T13:07:11;12.12;;;12.11;;
66669;SDS011;53568;52.164;4.472;2023-04-06T13:09:37;12.05;;;12.05;;
66669;SDS011;53568;52.164;4.472;2023-04-06T13:12:02;12.02;;;12.02;;
66669;SDS011;53568;52.164;4.472;2023-04-06T13:14:28;12.09;;;12.09;;
66669;SDS011;53568;52.164;4.472;2023-04-06T13:16:54;11.94;;;11.94;;
66669;SDS011;53568;52.164;4.472;2023-04-06T13:19:19;11.44;;;11.44;;
66669;SDS011;53568;52.164;4.472;2023-04-06T13:21:45;11.21;;;11.21;;
66669;SDS011;53568;52.164;4.472;2023-04-06T13:24:11;11.48;;;11.46;;
66669;SDS011;53568;52.164;4.472;2023-04-06T13:26:36;11.48;;;11.48;;
66669;SDS011;53568;52.164;4.472;2023-04-06T13:29:02;11.49;;;11.49;;
66669;SDS011;53568;52.164;4.472;2023-04-06T13:31:28;11.42;;;11.42;;
66669;SDS011;53568;52.164;4.472;2023-04-06T13:33:54;11.03;;;11.03;;
66669;SDS011;53568;52.164;4.472;2023-04-06T13:36:20;10.98;;;10.98;;
66669;SDS011;53568;52.164;4.472;2023-04-06T13:38:46;10.68;;;10.60;;
66669;SDS011;53568;52.164;4.472;2023-04-06T13:41:19;11.31;;;11.22;;
66669;SDS011;53568;52.164;4.472;2023-04-06T13:43:46;10.70;;;10.66;;
66669;SDS011;53568;52.164;4.472;2023-04-06T13:46:11;10.61;;;10.61;;
66669;SDS011;53568;52.164;4.472;2023-04-06T13:48:37;10.41;;;10.40;;
66669;SDS011;53568;52.164;4.472;2023-04-06T13:53:35;10.31;;;10.31;;
66669;SDS011;53568;52.164;4.472;2023-04-06T13:56:01;9.45;;;9.45;;
66669;SDS011;53568;52.164;4.472;2023-04-06T13:58:26;10.05;;;10.05;;
66669;SDS011;53568;52.164;4.472;2023-04-06T14:00:52;9.75;;;9.75;;
66669;SDS011;53568;52.164;4.472;2023-04-06T14:03:18;9.68;;;9.68;;
66669;SDS011;53568;52.164;4.472;2023-04-06T14:05:44;10.32;;;10.31;;
66669;SDS011;53568;52.164;4.472;2023-04-06T14:08:10;10.50;;;10.49;;
66669;SDS011;53568;52.164;4.472;2023-04-06T14:10:36;10.78;;;10.71;;
66669;SDS011;53568;52.164;4.472;2023-04-06T14:13:03;10.51;;;10.51;;
66669;SDS011;53568;52.164;4.472;2023-04-06T14:15:29;10.68;;;10.67;;
66669;SDS011;53568;52.164;4.472;2023-04-06T14:17:55;10.65;;;10.65;;
66669;SDS011;53568;52.164;4.472;2023-04-06T14:20:20;10.30;;;10.28;;
66669;SDS011;53568;52.164;4.472;2023-04-06T14:22:46;10.61;;;10.59;;
66669;SDS011;53568;52.164;4.472;2023-04-06T14:25:13;10.61;;;10.54;;
66669;SDS011;53568;52.164;4.472;2023-04-06T14:27:42;10.63;;;10.63;;
66669;SDS011;53568;52.164;4.472;2023-04-06T14:30:08;11.23;;;11.23;;
66669;SDS011;53568;52.164;4.472;2023-04-06T14:32:34;10.87;;;10.87;;